createdAt,value
2017-12-27T00:01:02.346Z,0
2017-12-27T00:02:04.757Z,0
2017-12-27T00:03:07.158Z,0
2017-12-27T00:04:09.571Z,0
2017-12-27T00:05:11.978Z,0
2017-12-27T00:06:14.387Z,0
2017-12-27T00:07:16.788Z,0
2017-12-27T00:08:19.199Z,0
2017-12-27T00:09:21.603Z,0
2017-12-27T00:10:24.024Z,0
2017-12-27T00:11:26.713Z,0
2017-12-27T00:12:29.127Z,0
2017-12-27T00:13:31.524Z,0
2017-12-27T00:14:33.936Z,0
2017-12-27T00:15:36.628Z,0
2017-12-27T00:16:39.034Z,0
2017-12-27T00:17:41.444Z,0
2017-12-27T00:18:43.862Z,0
2017-12-27T00:19:46.278Z,0
2017-12-27T00:20:48.685Z,0
2017-12-27T00:21:51.379Z,0
2017-12-27T00:22:53.796Z,0
2017-12-27T00:23:56.197Z,0
2017-12-27T00:24:58.606Z,0
2017-12-27T00:26:01.012Z,0
2017-12-27T00:27:03.421Z,0
2017-12-27T00:28:05.821Z,0
2017-12-27T00:29:08.228Z,0
2017-12-27T00:30:10.640Z,0
2017-12-27T00:31:13.051Z,0
2017-12-27T00:32:15.442Z,0
2017-12-27T00:33:17.862Z,0
2017-12-27T00:34:20.275Z,0
2017-12-27T00:35:22.679Z,0
2017-12-27T00:36:25.090Z,0
2017-12-27T00:37:27.495Z,0
2017-12-27T00:38:29.898Z,0
2017-12-27T00:39:32.320Z,0
2017-12-27T00:40:34.725Z,0
2017-12-27T00:41:37.138Z,0
2017-12-27T00:42:39.538Z,0
2017-12-27T00:43:41.957Z,0
2017-12-27T00:44:44.930Z,0
2017-12-27T00:45:47.335Z,0
2017-12-27T00:46:49.750Z,0
2017-12-27T00:47:52.153Z,0
2017-12-27T00:48:54.561Z,0
2017-12-27T00:49:56.978Z,0
2017-12-27T00:50:59.373Z,0
2017-12-27T00:52:01.787Z,0
2017-12-27T00:53:04.210Z,0
2017-12-27T00:54:06.893Z,0
2017-12-27T00:55:09.588Z,0
2017-12-27T00:56:12.271Z,0
2017-12-27T00:57:14.673Z,0
2017-12-27T00:58:17.102Z,0
2017-12-27T00:59:19.501Z,0
2017-12-27T01:00:22.183Z,0
2017-12-27T01:01:24.877Z,0
2017-12-27T01:02:27.281Z,0
2017-12-27T01:03:29.683Z,0
2017-12-27T01:04:32.101Z,0
2017-12-27T01:05:34.500Z,0
2017-12-27T01:06:36.908Z,0
2017-12-27T01:07:39.324Z,0
2017-12-27T01:08:42.326Z,0
2017-12-27T01:09:44.730Z,0
2017-12-27T01:10:47.140Z,0
2017-12-27T01:11:49.553Z,0
2017-12-27T01:12:51.964Z,0
2017-12-27T01:13:54.654Z,0
2017-12-27T01:14:57.065Z,0
2017-12-27T01:15:59.481Z,0
2017-12-27T01:17:01.879Z,0
2017-12-27T01:18:04.571Z,0
2017-12-27T01:19:06.985Z,0
2017-12-27T01:20:09.388Z,0
2017-12-27T01:21:11.798Z,0
2017-12-27T01:22:14.202Z,0
2017-12-27T01:23:16.606Z,0
2017-12-27T01:24:19.036Z,0
2017-12-27T01:25:21.437Z,0
2017-12-27T01:26:23.840Z,0
2017-12-27T01:27:26.257Z,0
2017-12-27T01:28:28.670Z,0
2017-12-27T01:29:31.354Z,0
2017-12-27T01:30:33.773Z,0
2017-12-27T01:31:36.163Z,0
2017-12-27T01:32:38.575Z,0
2017-12-27T01:33:40.986Z,0
2017-12-27T01:34:43.395Z,0
2017-12-27T01:35:45.806Z,0
2017-12-27T01:36:48.211Z,0
2017-12-27T01:37:50.622Z,0
2017-12-27T01:38:53.036Z,0
2017-12-27T01:39:55.445Z,0
2017-12-27T01:40:57.843Z,0
2017-12-27T01:42:00.252Z,0
2017-12-27T01:43:02.671Z,0
2017-12-27T01:44:05.411Z,0
2017-12-27T01:45:07.818Z,0
2017-12-27T01:46:10.224Z,0
2017-12-27T01:47:12.634Z,0
2017-12-27T01:48:15.032Z,0
2017-12-27T01:49:17.443Z,0
2017-12-27T01:50:19.849Z,0
2017-12-27T01:51:22.254Z,0
2017-12-27T01:52:24.945Z,0
2017-12-27T01:53:27.358Z,0
2017-12-27T01:54:29.761Z,0
2017-12-27T01:55:32.173Z,0
2017-12-27T01:56:34.884Z,0
2017-12-27T01:57:37.299Z,0
2017-12-27T01:58:39.705Z,0
2017-12-27T01:59:42.677Z,0
2017-12-27T02:00:45.081Z,0
2017-12-27T02:01:47.493Z,0
2017-12-27T02:02:49.897Z,0
2017-12-27T02:03:52.591Z,0
2017-12-27T02:04:54.997Z,0
2017-12-27T02:05:57.400Z,0
2017-12-27T02:06:59.811Z,0
2017-12-27T02:08:02.273Z,0
2017-12-27T02:09:04.678Z,0
2017-12-27T02:10:07.084Z,0
2017-12-27T02:11:09.488Z,0
2017-12-27T02:12:11.897Z,0
2017-12-27T02:13:14.310Z,0
2017-12-27T02:14:16.712Z,0
2017-12-27T02:15:19.121Z,0
2017-12-27T02:16:21.524Z,0
2017-12-27T02:17:23.933Z,0
2017-12-27T02:18:26.334Z,0
2017-12-27T02:19:28.742Z,0
2017-12-27T02:20:31.141Z,0
2017-12-27T02:21:33.562Z,0
2017-12-27T02:22:35.963Z,0
2017-12-27T02:23:38.655Z,0
2017-12-27T02:24:41.061Z,0
2017-12-27T02:25:43.763Z,0
2017-12-27T02:26:46.172Z,0
2017-12-27T02:27:48.581Z,0
2017-12-27T02:28:50.983Z,0
2017-12-27T02:29:53.396Z,0
2017-12-27T02:30:56.086Z,0
2017-12-27T02:31:58.501Z,0
2017-12-27T02:33:01.491Z,0
2017-12-27T02:34:03.904Z,0
2017-12-27T02:35:06.305Z,0
2017-12-27T02:36:08.719Z,0
2017-12-27T02:37:11.123Z,0
2017-12-27T02:38:13.529Z,0
2017-12-27T02:39:16.223Z,0
2017-12-27T02:40:18.636Z,0
2017-12-27T02:41:21.048Z,0
2017-12-27T02:42:23.456Z,0
2017-12-27T02:43:25.859Z,0
2017-12-27T02:44:28.275Z,0
2017-12-27T02:45:30.683Z,0
2017-12-27T02:46:33.090Z,0
2017-12-27T02:47:35.507Z,0
2017-12-27T02:48:37.904Z,0
2017-12-27T02:49:40.608Z,0
2017-12-27T02:50:43.015Z,0
2017-12-27T02:51:45.704Z,0
2017-12-27T02:52:48.110Z,0
2017-12-27T02:53:50.517Z,0
2017-12-27T02:54:52.929Z,0
2017-12-27T02:55:55.615Z,0
2017-12-27T02:56:58.022Z,0
2017-12-27T02:58:00.711Z,0
2017-12-27T02:59:03.125Z,0
2017-12-27T03:00:05.533Z,0
2017-12-27T03:01:07.952Z,0
2017-12-27T03:02:10.356Z,0
2017-12-27T03:03:12.758Z,0
2017-12-27T03:04:15.173Z,0
2017-12-27T03:05:17.573Z,0
2017-12-27T03:06:19.984Z,0
2017-12-27T03:07:22.385Z,0
2017-12-27T03:08:25.071Z,0
2017-12-27T03:09:27.482Z,0
2017-12-27T03:10:29.891Z,0
2017-12-27T03:11:32.301Z,0
2017-12-27T03:12:34.713Z,0
2017-12-27T03:13:37.099Z,0
2017-12-27T03:14:39.512Z,0
2017-12-27T03:15:41.921Z,0
2017-12-27T03:16:44.334Z,0
2017-12-27T03:17:46.738Z,0
2017-12-27T03:18:49.149Z,0
2017-12-27T03:19:51.835Z,0
2017-12-27T03:20:54.246Z,0
2017-12-27T03:21:56.654Z,0
2017-12-27T03:22:59.050Z,0
2017-12-27T03:24:01.458Z,0
2017-12-27T03:25:03.856Z,0
2017-12-27T03:26:06.269Z,0
2017-12-27T03:27:08.680Z,0
2017-12-27T03:28:11.366Z,0
2017-12-27T03:29:13.779Z,0
2017-12-27T03:30:16.184Z,0
2017-12-27T03:31:18.594Z,0
2017-12-27T03:32:20.996Z,0
2017-12-27T03:33:23.408Z,0
2017-12-27T03:34:26.086Z,0
2017-12-27T03:35:28.512Z,0
2017-12-27T03:36:31.199Z,0
2017-12-27T03:37:33.595Z,0
2017-12-27T03:38:36.003Z,0
2017-12-27T03:39:38.690Z,0
2017-12-27T03:40:41.097Z,0
2017-12-27T03:41:43.502Z,0
2017-12-27T03:42:45.902Z,0
2017-12-27T03:43:48.307Z,0
2017-12-27T03:44:50.710Z,0
2017-12-27T03:45:53.116Z,0
2017-12-27T03:46:55.540Z,0
2017-12-27T03:47:58.224Z,0
2017-12-27T03:49:00.634Z,0
2017-12-27T03:50:03.038Z,0
2017-12-27T03:51:05.450Z,0
2017-12-27T03:52:08.155Z,0
2017-12-27T03:53:10.567Z,0
2017-12-27T03:54:12.964Z,0
2017-12-27T03:55:15.379Z,0
2017-12-27T03:56:17.784Z,0
2017-12-27T03:57:20.190Z,0
2017-12-27T03:58:22.599Z,0
2017-12-27T03:59:24.997Z,0
2017-12-27T04:00:27.688Z,0
2017-12-27T04:01:30.105Z,0
2017-12-27T04:02:32.496Z,0
2017-12-27T04:03:34.913Z,0
2017-12-27T04:04:37.317Z,0
2017-12-27T04:05:39.728Z,0
2017-12-27T04:06:42.137Z,0
2017-12-27T04:07:44.828Z,0
2017-12-27T04:08:47.501Z,0
2017-12-27T04:09:49.920Z,0
2017-12-27T04:10:52.328Z,0
2017-12-27T04:11:54.734Z,0
2017-12-27T04:12:57.148Z,0
2017-12-27T04:13:59.546Z,0
2017-12-27T04:15:01.958Z,0
2017-12-27T04:16:04.362Z,0
2017-12-27T04:17:06.772Z,0
2017-12-27T04:18:09.184Z,0
2017-12-27T04:19:11.588Z,0
2017-12-27T04:20:13.988Z,0
2017-12-27T04:21:16.392Z,0
2017-12-27T04:22:19.077Z,0
2017-12-27T04:23:21.489Z,0
2017-12-27T04:24:23.896Z,0
2017-12-27T04:25:26.294Z,0
2017-12-27T04:26:28.711Z,0
2017-12-27T04:27:31.109Z,0
2017-12-27T04:28:33.525Z,0
2017-12-27T04:29:35.933Z,0
2017-12-27T04:30:38.338Z,0
2017-12-27T04:31:40.749Z,0
2017-12-27T04:32:43.155Z,0
2017-12-27T04:33:45.563Z,0
2017-12-27T04:34:47.977Z,0
2017-12-27T04:35:50.382Z,0
2017-12-27T04:36:52.775Z,0
2017-12-27T04:37:55.185Z,0
2017-12-27T04:38:57.877Z,0
2017-12-27T04:40:00.282Z,0
2017-12-27T04:41:02.976Z,0
2017-12-27T04:42:05.386Z,0
2017-12-27T04:43:07.805Z,0
2017-12-27T04:44:10.190Z,0
2017-12-27T04:45:12.603Z,0
2017-12-27T04:46:15.010Z,0
2017-12-27T04:47:17.419Z,0
2017-12-27T04:48:19.829Z,0
2017-12-27T04:49:22.229Z,0
2017-12-27T04:50:24.628Z,0
2017-12-27T04:51:27.322Z,0
2017-12-27T04:52:29.724Z,0
2017-12-27T04:53:32.132Z,0
2017-12-27T04:54:34.538Z,0
2017-12-27T04:55:36.941Z,0
2017-12-27T04:56:39.354Z,0
2017-12-27T04:57:41.753Z,0
2017-12-27T04:58:44.160Z,0
2017-12-27T04:59:46.870Z,0
2017-12-27T05:00:49.280Z,0
2017-12-27T05:01:51.679Z,0
2017-12-27T05:02:54.093Z,0
2017-12-27T05:03:56.496Z,0
2017-12-27T05:04:58.901Z,0
2017-12-27T05:06:01.303Z,0
2017-12-27T05:07:03.712Z,0
2017-12-27T05:08:06.110Z,0
2017-12-27T05:09:08.524Z,0
2017-12-27T05:10:10.934Z,0
2017-12-27T05:11:13.340Z,0
2017-12-27T05:12:15.748Z,0
2017-12-27T05:13:18.150Z,0
2017-12-27T05:14:20.568Z,0
2017-12-27T05:15:22.967Z,0
2017-12-27T05:16:25.672Z,0
2017-12-27T05:17:28.344Z,0
2017-12-27T05:18:30.749Z,0
2017-12-27T05:19:33.158Z,0
2017-12-27T05:20:35.568Z,0
2017-12-27T05:21:37.975Z,0
2017-12-27T05:22:40.387Z,0
2017-12-27T05:23:42.787Z,0
2017-12-27T05:24:45.492Z,0
2017-12-27T05:25:47.903Z,0
2017-12-27T05:26:50.291Z,0
2017-12-27T05:27:52.719Z,0
2017-12-27T05:28:55.408Z,0
2017-12-27T05:29:57.810Z,0
2017-12-27T05:31:00.217Z,0
2017-12-27T05:32:02.624Z,0
2017-12-27T05:33:05.030Z,0
2017-12-27T05:34:07.451Z,0
2017-12-27T05:35:09.847Z,0
2017-12-27T05:36:12.257Z,0
2017-12-27T05:37:14.946Z,0
2017-12-27T05:38:17.362Z,0
2017-12-27T05:39:19.762Z,0
2017-12-27T05:40:22.168Z,0
2017-12-27T05:41:24.592Z,0
2017-12-27T05:42:26.995Z,0
2017-12-27T05:43:29.676Z,0
2017-12-27T05:44:32.082Z,0
2017-12-27T05:45:34.485Z,0
2017-12-27T05:46:36.890Z,0
2017-12-27T05:47:39.298Z,0
2017-12-27T05:48:41.697Z,0
2017-12-27T05:49:44.099Z,0
2017-12-27T05:50:46.517Z,0
2017-12-27T05:51:48.925Z,0
2017-12-27T05:52:51.324Z,0
2017-12-27T05:53:53.738Z,0
2017-12-27T05:54:56.147Z,0
2017-12-27T05:55:58.555Z,0
2017-12-27T05:57:00.968Z,0
2017-12-27T05:58:03.365Z,0
2017-12-27T05:59:06.053Z,0
2017-12-27T06:00:08.452Z,0
2017-12-27T06:01:10.852Z,0
2017-12-27T06:02:13.544Z,0
2017-12-27T06:03:15.955Z,0
2017-12-27T06:04:18.637Z,0
2017-12-27T06:05:21.044Z,0
2017-12-27T06:06:23.456Z,0
2017-12-27T06:07:26.150Z,0
2017-12-27T06:08:28.563Z,0
2017-12-27T06:09:30.950Z,0
2017-12-27T06:10:33.357Z,0
2017-12-27T06:11:35.767Z,0
2017-12-27T06:12:38.160Z,0
2017-12-27T06:13:41.421Z,0
2017-12-27T06:14:43.838Z,0
2017-12-27T06:15:46.254Z,0
2017-12-27T06:16:48.941Z,0
2017-12-27T06:17:51.347Z,0
2017-12-27T06:18:53.758Z,0
2017-12-27T06:19:56.164Z,0
2017-12-27T06:20:58.574Z,0
2017-12-27T06:22:00.966Z,0
2017-12-27T06:23:03.388Z,0
2017-12-27T06:24:05.777Z,0
2017-12-27T06:25:08.192Z,0
2017-12-27T06:26:10.597Z,0
2017-12-27T06:27:13.004Z,0
2017-12-27T06:28:15.407Z,0
2017-12-27T06:29:17.858Z,0
2017-12-27T06:30:20.216Z,0
2017-12-27T06:31:22.635Z,0
2017-12-27T06:32:25.037Z,0
2017-12-27T06:33:27.449Z,0
2017-12-27T06:34:29.859Z,0
2017-12-27T06:35:32.274Z,0
2017-12-27T06:36:34.693Z,0
2017-12-27T06:37:37.085Z,0
2017-12-27T06:38:39.485Z,0
2017-12-27T06:39:41.897Z,0
2017-12-27T06:40:44.292Z,0
2017-12-27T06:41:46.701Z,0
2017-12-27T06:42:49.108Z,0
2017-12-27T06:43:51.794Z,0
2017-12-27T06:44:54.474Z,0
2017-12-27T06:45:57.163Z,0
2017-12-27T06:46:59.563Z,0
2017-12-27T06:48:01.985Z,0
2017-12-27T06:49:04.386Z,0
2017-12-27T06:50:06.783Z,0
2017-12-27T06:51:09.189Z,0
2017-12-27T06:52:11.604Z,0
2017-12-27T06:53:13.998Z,0
2017-12-27T06:54:16.410Z,0
2017-12-27T06:55:19.099Z,0
2017-12-27T06:56:21.505Z,0
2017-12-27T06:57:23.926Z,0
2017-12-27T06:58:26.329Z,0
2017-12-27T06:59:28.723Z,0
2017-12-27T07:00:31.140Z,0
2017-12-27T07:01:33.823Z,0
2017-12-27T07:02:36.233Z,0
2017-12-27T07:03:38.640Z,0
2017-12-27T07:04:41.315Z,0
2017-12-27T07:05:43.723Z,0
2017-12-27T07:06:46.138Z,0
2017-12-27T07:07:48.539Z,0
2017-12-27T07:08:50.943Z,0
2017-12-27T07:09:53.350Z,0
2017-12-27T07:10:55.752Z,0
2017-12-27T07:11:58.148Z,0
2017-12-27T07:13:00.559Z,0
2017-12-27T07:14:02.963Z,0
2017-12-27T07:15:05.666Z,0
2017-12-27T07:16:08.064Z,0
2017-12-27T07:17:10.757Z,1
2017-12-27T07:18:13.164Z,1
2017-12-27T07:19:15.576Z,1
2017-12-27T07:20:17.979Z,1
2017-12-27T07:21:20.388Z,1
2017-12-27T07:22:23.095Z,1
2017-12-27T07:23:25.488Z,1
2017-12-27T07:24:28.182Z,2
2017-12-27T07:25:30.871Z,2
2017-12-27T07:26:33.564Z,2
2017-12-27T07:27:35.964Z,2
2017-12-27T07:28:38.377Z,2
2017-12-27T07:29:40.776Z,2
2017-12-27T07:30:43.197Z,2
2017-12-27T07:31:45.884Z,2
2017-12-27T07:32:48.281Z,2
2017-12-27T07:33:50.690Z,2
2017-12-27T07:34:53.126Z,2
2017-12-27T07:35:55.500Z,2
2017-12-27T07:36:58.189Z,3
2017-12-27T07:38:00.896Z,3
2017-12-27T07:39:03.307Z,3
2017-12-27T07:40:05.993Z,3
2017-12-27T07:41:08.690Z,3
2017-12-27T07:42:11.106Z,3
2017-12-27T07:43:13.516Z,4
2017-12-27T07:44:15.939Z,4
2017-12-27T07:45:18.322Z,4
2017-12-27T07:46:20.737Z,4
2017-12-27T07:47:23.152Z,5
2017-12-27T07:48:25.553Z,5
2017-12-27T07:49:28.254Z,5
2017-12-27T07:50:30.653Z,5
2017-12-27T07:51:33.145Z,5
2017-12-27T07:52:35.592Z,5
2017-12-27T07:53:38.006Z,5
2017-12-27T07:54:40.425Z,6
2017-12-27T07:55:42.839Z,6
2017-12-27T07:56:45.550Z,6
2017-12-27T07:57:47.965Z,6
2017-12-27T07:58:50.381Z,6
2017-12-27T07:59:52.788Z,6
2017-12-27T08:00:55.197Z,6
2017-12-27T08:01:57.609Z,6
2017-12-27T08:03:00.016Z,6
2017-12-27T08:04:02.433Z,7
2017-12-27T08:05:05.116Z,7
2017-12-27T08:06:07.532Z,7
2017-12-27T08:07:09.949Z,7
2017-12-27T08:08:12.359Z,7
2017-12-27T08:09:14.770Z,8
2017-12-27T08:10:17.186Z,8
2017-12-27T08:11:19.599Z,8
2017-12-27T08:12:22.003Z,8
2017-12-27T08:13:24.405Z,8
2017-12-27T08:14:26.819Z,9
2017-12-27T08:15:29.220Z,9
2017-12-27T08:16:31.646Z,9
2017-12-27T08:17:34.045Z,9
2017-12-27T08:18:36.467Z,9
2017-12-27T08:19:38.877Z,10
2017-12-27T08:20:41.288Z,10
2017-12-27T08:21:43.689Z,10
2017-12-27T08:22:46.104Z,11
2017-12-27T08:23:48.793Z,11
2017-12-27T08:24:51.205Z,12
2017-12-27T08:25:53.625Z,12
2017-12-27T08:26:56.321Z,12
2017-12-27T08:27:58.718Z,13
2017-12-27T08:29:01.139Z,13
2017-12-27T08:30:03.827Z,14
2017-12-27T08:31:06.233Z,15
2017-12-27T08:32:08.637Z,14
2017-12-27T08:33:11.216Z,16
2017-12-27T08:34:13.623Z,17
2017-12-27T08:35:16.052Z,17
2017-12-27T08:36:18.460Z,18
2017-12-27T08:37:20.900Z,19
2017-12-27T08:38:23.296Z,19
2017-12-27T08:39:25.717Z,19
2017-12-27T08:40:28.117Z,19
2017-12-27T08:41:30.525Z,19
2017-12-27T08:42:32.927Z,19
2017-12-27T08:43:35.343Z,19
2017-12-27T08:44:37.754Z,19
2017-12-27T08:45:40.167Z,20
2017-12-27T08:46:42.563Z,20
2017-12-27T08:47:45.261Z,20
2017-12-27T08:48:47.677Z,21
2017-12-27T08:49:50.081Z,21
2017-12-27T08:50:52.489Z,22
2017-12-27T08:51:54.899Z,22
2017-12-27T08:52:57.302Z,23
2017-12-27T08:53:59.710Z,24
2017-12-27T08:55:02.120Z,24
2017-12-27T08:56:04.524Z,25
2017-12-27T08:57:06.928Z,25
2017-12-27T08:58:09.340Z,26
2017-12-27T08:59:12.047Z,26
2017-12-27T09:00:14.459Z,27
2017-12-27T09:01:16.859Z,27
2017-12-27T09:02:19.273Z,28
2017-12-27T09:03:21.687Z,28
2017-12-27T09:04:24.098Z,29
2017-12-27T09:05:26.508Z,29
2017-12-27T09:06:28.913Z,29
2017-12-27T09:07:31.605Z,30
2017-12-27T09:08:34.016Z,30
2017-12-27T09:09:36.415Z,30
2017-12-27T09:10:38.842Z,30
2017-12-27T09:11:41.530Z,31
2017-12-27T09:12:43.945Z,31
2017-12-27T09:13:46.357Z,32
2017-12-27T09:14:50.382Z,32
2017-12-27T09:15:52.789Z,33
2017-12-27T09:16:55.524Z,33
2017-12-27T09:17:57.920Z,34
2017-12-27T09:19:00.347Z,34
2017-12-27T09:20:02.752Z,35
2017-12-27T09:21:05.156Z,35
2017-12-27T09:22:07.570Z,36
2017-12-27T09:23:09.980Z,35
2017-12-27T09:24:12.392Z,36
2017-12-27T09:25:14.803Z,36
2017-12-27T09:26:17.492Z,37
2017-12-27T09:27:19.912Z,37
2017-12-27T09:28:22.313Z,38
2017-12-27T09:29:25.029Z,38
2017-12-27T09:30:27.431Z,37
2017-12-27T09:31:29.851Z,37
2017-12-27T09:32:32.571Z,36
2017-12-27T09:33:34.986Z,35
2017-12-27T09:34:37.394Z,34
2017-12-27T09:35:39.810Z,34
2017-12-27T09:36:42.483Z,34
2017-12-27T09:37:44.895Z,36
2017-12-27T09:38:47.310Z,41
2017-12-27T09:39:49.741Z,41
2017-12-27T09:40:52.143Z,37
2017-12-27T09:41:54.551Z,34
2017-12-27T09:42:56.956Z,34
2017-12-27T09:43:59.655Z,36
2017-12-27T09:45:02.349Z,39
2017-12-27T09:46:04.747Z,41
2017-12-27T09:47:07.168Z,46
2017-12-27T09:48:09.579Z,48
2017-12-27T09:49:11.989Z,45
2017-12-27T09:50:14.394Z,48
2017-12-27T09:51:16.798Z,55
2017-12-27T09:52:19.209Z,54
2017-12-27T09:53:22.219Z,55
2017-12-27T09:54:25.084Z,52
2017-12-27T09:55:27.571Z,46
2017-12-27T09:56:29.974Z,37
2017-12-27T09:57:32.366Z,35
2017-12-27T09:58:35.078Z,34
2017-12-27T09:59:37.829Z,32
2017-12-27T10:00:40.515Z,31
2017-12-27T10:01:43.211Z,30
2017-12-27T10:02:45.615Z,29
2017-12-27T10:03:48.028Z,28
2017-12-27T10:04:50.733Z,28
2017-12-27T10:05:53.236Z,28
2017-12-27T10:06:55.683Z,27
2017-12-27T10:07:58.384Z,26
2017-12-27T10:09:00.792Z,27
2017-12-27T10:10:03.193Z,26
2017-12-27T10:11:05.609Z,26
2017-12-27T10:12:08.024Z,26
2017-12-27T10:13:10.433Z,27
2017-12-27T10:14:12.847Z,28
2017-12-27T10:15:15.300Z,30
2017-12-27T10:16:17.667Z,32
2017-12-27T10:17:20.092Z,35
2017-12-27T10:18:22.503Z,37
2017-12-27T10:19:24.904Z,40
2017-12-27T10:20:27.316Z,42
2017-12-27T10:21:29.723Z,44
2017-12-27T10:22:32.137Z,47
2017-12-27T10:23:34.548Z,50
2017-12-27T10:24:37.241Z,51
2017-12-27T10:25:39.656Z,51
2017-12-27T10:26:42.077Z,51
2017-12-27T10:27:44.485Z,50
2017-12-27T10:28:46.901Z,49
2017-12-27T10:29:49.315Z,49
2017-12-27T10:30:51.722Z,49
2017-12-27T10:31:54.152Z,50
2017-12-27T10:32:56.844Z,50
2017-12-27T10:33:59.245Z,51
2017-12-27T10:35:01.648Z,51
2017-12-27T10:36:04.342Z,51
2017-12-27T10:37:07.692Z,50
2017-12-27T10:38:10.296Z,49
2017-12-27T10:39:12.977Z,49
2017-12-27T10:40:15.655Z,47
2017-12-27T10:41:18.314Z,45
2017-12-27T10:42:21.002Z,43
2017-12-27T10:43:23.729Z,41
2017-12-27T10:44:26.740Z,39
2017-12-27T10:45:29.388Z,37
2017-12-27T10:46:32.189Z,36
2017-12-27T10:47:35.608Z,33
2017-12-27T10:48:38.404Z,30
2017-12-27T10:49:41.186Z,28
2017-12-27T10:50:44.014Z,27
2017-12-27T10:51:47.138Z,25
2017-12-27T10:52:49.957Z,23
2017-12-27T10:53:52.776Z,22
2017-12-27T10:54:55.970Z,22
2017-12-27T10:55:58.816Z,21
2017-12-27T10:57:01.651Z,21
2017-12-27T10:58:04.558Z,21
2017-12-27T10:59:07.311Z,19
2017-12-27T11:00:10.084Z,19
2017-12-27T11:01:13.080Z,20
2017-12-27T11:02:15.904Z,21
2017-12-27T11:03:18.723Z,22
2017-12-27T11:04:21.572Z,23
2017-12-27T11:05:24.167Z,23
2017-12-27T11:06:26.967Z,21
2017-12-27T11:07:30.114Z,19
2017-12-27T11:08:32.998Z,18
2017-12-27T11:09:36.058Z,17
2017-12-27T11:10:38.936Z,19
2017-12-27T11:11:41.772Z,21
2017-12-27T11:12:44.487Z,23
2017-12-27T11:13:47.285Z,24
2017-12-27T11:14:50.194Z,23
2017-12-27T11:15:52.678Z,20
2017-12-27T11:16:55.093Z,18
2017-12-27T11:17:57.509Z,17
2017-12-27T11:19:00.549Z,16
2017-12-27T11:20:03.124Z,16
2017-12-27T11:21:05.525Z,16
2017-12-27T11:22:07.954Z,17
2017-12-27T11:23:10.356Z,20
2017-12-27T11:24:12.763Z,24
2017-12-27T11:25:15.180Z,26
2017-12-27T11:26:17.654Z,27
2017-12-27T11:27:20.070Z,27
2017-12-27T11:28:22.773Z,28
2017-12-27T11:29:25.455Z,29
2017-12-27T11:30:27.871Z,28
2017-12-27T11:31:30.282Z,28
2017-12-27T11:32:32.701Z,28
2017-12-27T11:33:35.116Z,29
2017-12-27T11:34:37.529Z,29
2017-12-27T11:35:40.249Z,29
2017-12-27T11:36:42.656Z,30
2017-12-27T11:37:45.355Z,29
2017-12-27T11:38:47.768Z,28
2017-12-27T11:39:50.173Z,26
2017-12-27T11:40:52.589Z,23
2017-12-27T11:41:55.005Z,21
2017-12-27T11:42:57.406Z,19
2017-12-27T11:43:59.821Z,19
2017-12-27T11:45:02.525Z,20
2017-12-27T11:46:04.939Z,18
2017-12-27T11:47:07.417Z,17
2017-12-27T11:48:10.487Z,17
2017-12-27T11:49:13.055Z,19
2017-12-27T11:50:15.513Z,20
2017-12-27T11:51:17.929Z,24
2017-12-27T11:52:20.352Z,21
2017-12-27T11:53:22.764Z,17
2017-12-27T11:54:25.173Z,17
2017-12-27T11:55:27.865Z,16
2017-12-27T11:56:30.303Z,15
2017-12-27T11:57:32.728Z,15
2017-12-27T11:58:35.528Z,14
2017-12-27T11:59:37.954Z,13
2017-12-27T12:00:40.379Z,13
2017-12-27T12:01:42.806Z,11
2017-12-27T12:02:45.213Z,10
2017-12-27T12:03:47.629Z,11
2017-12-27T12:04:50.155Z,11
2017-12-27T12:05:52.598Z,12
2017-12-27T12:06:55.010Z,12
2017-12-27T12:07:57.442Z,10
2017-12-27T12:08:59.842Z,10
2017-12-27T12:10:02.264Z,10
2017-12-27T12:11:04.670Z,9
2017-12-27T12:12:07.378Z,9
2017-12-27T12:13:09.786Z,8
2017-12-27T12:14:12.385Z,8
2017-12-27T12:15:14.996Z,7
2017-12-27T12:16:17.403Z,7
2017-12-27T12:17:19.809Z,8
2017-12-27T12:18:22.213Z,8
2017-12-27T12:19:24.631Z,8
2017-12-27T12:20:27.317Z,8
2017-12-27T12:21:29.730Z,8
2017-12-27T12:22:32.423Z,8
2017-12-27T12:23:34.830Z,9
2017-12-27T12:24:37.528Z,9
2017-12-27T12:25:40.225Z,9
2017-12-27T12:26:42.927Z,9
2017-12-27T12:27:45.341Z,10
2017-12-27T12:28:47.754Z,10
2017-12-27T12:29:50.174Z,11
2017-12-27T12:30:52.580Z,12
2017-12-27T12:31:55.269Z,13
2017-12-27T12:32:57.675Z,14
2017-12-27T12:34:01.029Z,12
2017-12-27T12:35:03.444Z,10
2017-12-27T12:36:05.847Z,9
2017-12-27T12:37:08.258Z,9
2017-12-27T12:38:10.680Z,11
2017-12-27T12:39:13.363Z,12
2017-12-27T12:40:15.776Z,11
2017-12-27T12:41:18.189Z,10
2017-12-27T12:42:20.606Z,10
2017-12-27T12:43:23.017Z,11
2017-12-27T12:44:25.437Z,13
2017-12-27T12:45:27.831Z,15
2017-12-27T12:46:30.254Z,17
2017-12-27T12:47:32.675Z,18
2017-12-27T12:48:35.074Z,17
2017-12-27T12:49:37.780Z,18
2017-12-27T12:50:40.187Z,18
2017-12-27T12:51:42.599Z,17
2017-12-27T12:52:45.003Z,16
2017-12-27T12:53:47.422Z,16
2017-12-27T12:54:49.832Z,16
2017-12-27T12:55:52.252Z,17
2017-12-27T12:56:54.651Z,16
2017-12-27T12:57:57.070Z,16
2017-12-27T12:58:59.795Z,15
2017-12-27T13:00:02.190Z,14
2017-12-27T13:01:04.880Z,13
2017-12-27T13:02:07.291Z,14
2017-12-27T13:03:09.702Z,14
2017-12-27T13:04:12.400Z,14
2017-12-27T13:05:14.813Z,14
2017-12-27T13:06:17.237Z,14
2017-12-27T13:07:19.649Z,14
2017-12-27T13:08:22.341Z,15
2017-12-27T13:09:25.067Z,16
2017-12-27T13:10:27.773Z,17
2017-12-27T13:11:30.185Z,18
2017-12-27T13:12:32.598Z,18
2017-12-27T13:13:35.000Z,19
2017-12-27T13:14:37.413Z,19
2017-12-27T13:15:39.829Z,17
2017-12-27T13:16:42.238Z,17
2017-12-27T13:17:44.929Z,18
2017-12-27T13:18:47.337Z,19
2017-12-27T13:19:50.026Z,19
2017-12-27T13:20:52.456Z,19
2017-12-27T13:21:55.097Z,19
2017-12-27T13:22:57.565Z,17
2017-12-27T13:24:00.096Z,16
2017-12-27T13:25:02.863Z,15
2017-12-27T13:26:05.393Z,15
2017-12-27T13:27:08.253Z,14
2017-12-27T13:28:10.648Z,14
2017-12-27T13:29:13.403Z,13
2017-12-27T13:30:15.827Z,12
2017-12-27T13:31:18.233Z,11
2017-12-27T13:32:20.870Z,11
2017-12-27T13:33:23.335Z,10
2017-12-27T13:34:25.740Z,10
2017-12-27T13:35:28.157Z,10
2017-12-27T13:36:30.563Z,11
2017-12-27T13:37:32.986Z,10
2017-12-27T13:38:35.398Z,9
2017-12-27T13:39:38.087Z,8
2017-12-27T13:40:40.504Z,9
2017-12-27T13:41:42.917Z,9
2017-12-27T13:42:45.902Z,9
2017-12-27T13:43:48.316Z,8
2017-12-27T13:44:50.747Z,9
2017-12-27T13:45:53.201Z,9
2017-12-27T13:46:55.618Z,9
2017-12-27T13:47:58.341Z,9
2017-12-27T13:49:00.748Z,8
2017-12-27T13:50:03.168Z,8
2017-12-27T13:51:05.580Z,7
2017-12-27T13:52:08.275Z,7
2017-12-27T13:53:10.694Z,7
2017-12-27T13:54:13.087Z,8
2017-12-27T13:55:15.512Z,9
2017-12-27T13:56:17.922Z,9
2017-12-27T13:57:20.330Z,9
2017-12-27T13:58:22.742Z,9
2017-12-27T13:59:25.154Z,8
2017-12-27T14:00:27.566Z,7
2017-12-27T14:01:29.989Z,7
2017-12-27T14:02:32.675Z,7
2017-12-27T14:03:35.378Z,6
2017-12-27T14:04:37.791Z,6
2017-12-27T14:05:40.485Z,6
2017-12-27T14:06:43.451Z,6
2017-12-27T14:07:45.863Z,6
2017-12-27T14:08:48.555Z,6
2017-12-27T14:09:50.975Z,6
2017-12-27T14:10:53.379Z,5
2017-12-27T14:11:55.792Z,5
2017-12-27T14:12:58.488Z,4
2017-12-27T14:14:00.903Z,4
2017-12-27T14:15:03.320Z,5
2017-12-27T14:16:06.015Z,4
2017-12-27T14:17:08.429Z,4
2017-12-27T14:18:10.854Z,4
2017-12-27T14:19:13.265Z,4
2017-12-27T14:20:15.662Z,4
2017-12-27T14:21:18.081Z,4
2017-12-27T14:22:20.499Z,4
2017-12-27T14:23:22.906Z,3
2017-12-27T14:24:25.323Z,3
2017-12-27T14:25:27.735Z,3
2017-12-27T14:26:30.138Z,3
2017-12-27T14:27:32.566Z,3
2017-12-27T14:28:34.974Z,4
2017-12-27T14:29:37.375Z,4
2017-12-27T14:30:39.793Z,5
2017-12-27T14:31:42.213Z,5
2017-12-27T14:32:44.898Z,4
2017-12-27T14:33:47.599Z,4
2017-12-27T14:34:50.030Z,4
2017-12-27T14:35:52.434Z,4
2017-12-27T14:36:54.838Z,3
2017-12-27T14:38:29.365Z,3
2017-12-27T14:39:31.781Z,3
2017-12-27T14:40:34.475Z,2
2017-12-27T14:41:36.886Z,2
2017-12-27T14:42:39.579Z,2
2017-12-27T14:43:41.992Z,2
2017-12-27T14:44:44.675Z,1
2017-12-27T14:45:47.090Z,1
2017-12-27T14:46:49.510Z,1
2017-12-27T14:47:51.915Z,1
2017-12-27T14:48:54.333Z,1
2017-12-27T14:49:56.737Z,1
2017-12-27T14:50:59.145Z,1
2017-12-27T14:52:01.575Z,1
2017-12-27T14:53:03.979Z,1
2017-12-27T14:54:06.398Z,2
2017-12-27T14:55:08.817Z,1
2017-12-27T14:56:11.228Z,1
2017-12-27T14:57:13.641Z,1
2017-12-27T14:58:16.061Z,1
2017-12-27T14:59:18.459Z,1
2017-12-27T15:00:20.886Z,1
2017-12-27T15:01:23.307Z,1
2017-12-27T15:02:25.728Z,1
2017-12-27T15:03:28.421Z,1
2017-12-27T15:04:30.847Z,1
2017-12-27T15:05:33.559Z,0
2017-12-27T15:06:35.980Z,0
2017-12-27T15:07:38.392Z,0
2017-12-27T15:08:40.821Z,0
2017-12-27T15:09:43.232Z,0
2017-12-27T15:10:45.645Z,0
2017-12-27T15:11:48.050Z,0
2017-12-27T15:12:50.466Z,0
2017-12-27T15:13:52.881Z,0